createdAt,value
2017-12-31T00:02:21.627Z,2.00
2017-12-31T00:07:25.322Z,2.00
2017-12-31T00:12:29.862Z,2.10
2017-12-31T00:17:34.756Z,2.10
2017-12-31T00:22:39.010Z,2.10
2017-12-31T00:27:43.522Z,2.10
2017-12-31T00:32:47.740Z,2.10
2017-12-31T00:37:50.715Z,2.10
2017-12-31T00:42:53.807Z,2.10
2017-12-31T00:48:01.474Z,2.10
2017-12-31T00:53:08.445Z,2.10
2017-12-31T00:58:12.368Z,2.10
2017-12-31T01:03:18.614Z,2.10
2017-12-31T01:08:22.757Z,2.10
2017-12-31T01:13:27.474Z,2.20
2017-12-31T01:18:31.281Z,2.10
2017-12-31T01:23:35.373Z,2.20
2017-12-31T01:28:38.323Z,2.20
2017-12-31T01:33:42.025Z,2.20
2017-12-31T01:38:45.895Z,2.20
2017-12-31T01:43:49.717Z,2.20
2017-12-31T01:49:05.644Z,2.20
2017-12-31T01:54:09.705Z,2.20
2017-12-31T01:59:12.692Z,2.20
2017-12-31T02:04:15.623Z,2.20
2017-12-31T02:09:21.304Z,2.30
2017-12-31T02:14:26.003Z,2.30
2017-12-31T02:19:30.198Z,2.30
2017-12-31T02:24:34.958Z,2.30
2017-12-31T02:29:40.952Z,2.30
2017-12-31T02:39:59.078Z,2.40
2017-12-31T02:45:02.754Z,2.40
2017-12-31T02:55:21.857Z,3.00
2017-12-31T03:00:28.145Z,3.70
2017-12-31T03:05:34.888Z,3.60
2017-12-31T03:10:47.162Z,3.90
2017-12-31T03:15:49.731Z,4.20
2017-12-31T03:20:52.258Z,4.40
2017-12-31T03:25:54.793Z,4.60
2017-12-31T03:30:57.322Z,4.70
2017-12-31T03:35:59.859Z,4.90
2017-12-31T03:41:02.390Z,5.00
2017-12-31T03:46:13.000Z,5.10
2017-12-31T03:51:22.023Z,5.30
2017-12-31T03:56:30.061Z,5.40
2017-12-31T04:01:36.204Z,5.50
2017-12-31T04:06:43.838Z,5.70
2017-12-31T04:11:53.253Z,5.70
2017-12-31T04:17:04.142Z,5.90
2017-12-31T04:22:08.720Z,6.00
2017-12-31T04:27:20.670Z,6.10
2017-12-31T04:32:32.747Z,6.20
2017-12-31T04:37:35.874Z,6.30
2017-12-31T04:47:49.879Z,6.60
2017-12-31T04:52:57.699Z,6.60
2017-12-31T04:58:15.390Z,6.70
2017-12-31T05:03:23.113Z,6.80
2017-12-31T05:08:28.459Z,6.90
2017-12-31T05:13:32.621Z,6.90
2017-12-31T05:18:37.668Z,7.00
2017-12-31T05:23:42.940Z,7.10
2017-12-31T05:28:54.526Z,7.10
2017-12-31T05:34:02.585Z,7.20
2017-12-31T05:39:10.661Z,7.20
2017-12-31T05:44:14.221Z,7.30
2017-12-31T05:49:22.242Z,7.40
2017-12-31T05:54:30.152Z,7.40
2017-12-31T05:59:46.737Z,7.40
2017-12-31T06:04:50.801Z,7.50
2017-12-31T06:09:55.450Z,7.60
2017-12-31T06:15:01.234Z,7.60
2017-12-31T06:20:12.260Z,7.70
2017-12-31T06:25:22.159Z,7.70
2017-12-31T06:30:27.474Z,7.80
2017-12-31T06:35:32.670Z,7.80
2017-12-31T06:40:39.885Z,7.90
2017-12-31T06:45:47.985Z,7.90
2017-12-31T06:50:54.487Z,7.90
2017-12-31T06:56:01.466Z,8.00
2017-12-31T07:01:06.061Z,8.00
2017-12-31T07:06:13.209Z,8.10
2017-12-31T07:11:21.693Z,8.10
2017-12-31T07:16:28.122Z,8.20
2017-12-31T07:26:53.835Z,8.20
2017-12-31T07:31:59.525Z,8.20
2017-12-31T07:37:05.215Z,8.30
2017-12-31T07:42:11.349Z,8.30
2017-12-31T07:47:13.882Z,8.30
2017-12-31T07:52:16.434Z,8.30
2017-12-31T07:57:27.046Z,8.40
2017-12-31T08:02:35.106Z,8.40
2017-12-31T08:07:40.077Z,8.50
2017-12-31T08:12:49.640Z,8.50
2017-12-31T08:17:55.718Z,8.50
2017-12-31T08:23:03.641Z,8.50
2017-12-31T08:28:11.248Z,8.50
2017-12-31T08:33:17.276Z,8.60
2017-12-31T08:38:20.590Z,8.60
2017-12-31T08:43:27.389Z,8.90
2017-12-31T08:48:32.391Z,8.90
2017-12-31T08:53:49.344Z,9.10
2017-12-31T08:58:52.030Z,9.30
2017-12-31T09:04:01.968Z,9.50
2017-12-31T09:09:08.534Z,9.70
2017-12-31T09:14:16.373Z,9.90
2017-12-31T09:19:19.710Z,10.20
2017-12-31T09:24:24.774Z,10.20
2017-12-31T09:29:31.498Z,10.20
2017-12-31T09:34:38.141Z,10.40
2017-12-31T09:39:43.308Z,10.50
2017-12-31T09:44:52.745Z,10.60
2017-12-31T09:50:07.555Z,10.70
2017-12-31T09:55:21.520Z,10.80
2017-12-31T10:00:33.712Z,11.00
2017-12-31T10:05:43.634Z,11.10
2017-12-31T10:10:51.854Z,11.10
2017-12-31T10:16:03.232Z,11.20
2017-12-31T10:21:20.986Z,11.30
2017-12-31T10:26:25.732Z,11.20
2017-12-31T10:36:48.566Z,11.20
2017-12-31T10:42:01.407Z,11.20
2017-12-31T10:47:08.657Z,11.20
2017-12-31T10:52:21.363Z,11.20
2017-12-31T10:57:28.496Z,11.30
2017-12-31T11:02:36.830Z,11.40
2017-12-31T11:07:43.013Z,11.40
2017-12-31T11:12:52.196Z,11.50
2017-12-31T11:18:02.960Z,11.50
2017-12-31T11:23:15.377Z,11.60
2017-12-31T11:28:22.619Z,11.50
2017-12-31T11:33:29.045Z,11.70
2017-12-31T11:38:37.484Z,11.70
2017-12-31T11:43:41.517Z,11.90
2017-12-31T11:48:49.245Z,12.20
2017-12-31T11:59:13.645Z,12.80
2017-12-31T12:04:23.786Z,12.70
2017-12-31T12:09:31.408Z,12.90
2017-12-31T12:14:36.805Z,13.00
2017-12-31T12:19:48.217Z,13.10
2017-12-31T12:24:58.747Z,13.10
2017-12-31T12:30:03.970Z,13.10
2017-12-31T12:35:09.073Z,13.00
2017-12-31T12:40:16.964Z,13.00
2017-12-31T12:45:32.336Z,12.90
2017-12-31T12:50:44.545Z,12.90
2017-12-31T12:55:47.091Z,12.80
2017-12-31T13:00:49.665Z,12.80
2017-12-31T13:05:53.834Z,12.80
2017-12-31T13:10:57.276Z,12.70
2017-12-31T13:16:05.464Z,12.60
2017-12-31T13:21:14.290Z,12.50
2017-12-31T13:26:21.561Z,12.50
2017-12-31T13:31:26.623Z,12.50
2017-12-31T13:36:32.880Z,12.40
2017-12-31T13:41:39.391Z,12.40
2017-12-31T13:46:46.885Z,12.30
2017-12-31T13:51:53.864Z,12.30
2017-12-31T13:56:56.436Z,12.30
2017-12-31T14:01:58.970Z,12.20
2017-12-31T14:07:05.738Z,12.20
2017-12-31T14:12:12.206Z,12.10
2017-12-31T14:17:17.872Z,12.10
2017-12-31T14:22:23.869Z,12.00
2017-12-31T14:27:31.636Z,12.00
2017-12-31T14:32:40.846Z,12.00
2017-12-31T14:37:54.481Z,11.90
2017-12-31T14:42:57.781Z,11.80
2017-12-31T14:48:06.109Z,11.80
2017-12-31T14:58:26.551Z,11.70
2017-12-31T15:03:29.093Z,11.60
2017-12-31T15:08:31.647Z,11.50
2017-12-31T15:13:34.978Z,11.30
2017-12-31T15:18:40.411Z,11.30
2017-12-31T15:23:52.471Z,11.30
2017-12-31T15:29:00.369Z,11.20
2017-12-31T15:34:07.134Z,11.10
2017-12-31T15:39:12.704Z,11.00
2017-12-31T15:44:21.678Z,11.00
2017-12-31T15:49:30.936Z,10.90
2017-12-31T15:54:38.744Z,10.90
2017-12-31T15:59:41.367Z,10.80
2017-12-31T16:04:43.898Z,10.70
2017-12-31T16:09:46.451Z,10.60
2017-12-31T16:14:58.858Z,10.60
2017-12-31T16:20:04.230Z,10.50
2017-12-31T16:25:10.428Z,10.40
2017-12-31T16:30:13.090Z,10.30
2017-12-31T16:35:15.660Z,10.30
2017-12-31T16:40:37.742Z,10.20
2017-12-31T16:45:43.862Z,10.10
2017-12-31T16:50:52.215Z,10.00
2017-12-31T16:55:56.084Z,9.80
2017-12-31T17:01:02.748Z,9.70
2017-12-31T17:06:12.264Z,9.60
2017-12-31T17:16:37.924Z,9.30
2017-12-31T17:21:46.215Z,9.20
2017-12-31T17:26:59.536Z,9.20
2017-12-31T17:32:07.083Z,8.90
2017-12-31T17:37:11.937Z,8.90
2017-12-31T17:42:16.933Z,8.80
2017-12-31T17:47:28.995Z,8.70
2017-12-31T17:52:36.658Z,8.60
2017-12-31T17:57:43.230Z,8.50
2017-12-31T18:02:56.125Z,8.40
2017-12-31T18:07:58.719Z,8.40
2017-12-31T18:13:01.284Z,8.30
2017-12-31T18:18:03.835Z,8.20
2017-12-31T18:23:06.378Z,8.10
2017-12-31T18:28:15.520Z,8.00
2017-12-31T18:33:24.284Z,7.90
2017-12-31T18:38:32.376Z,7.90
2017-12-31T18:43:40.255Z,7.80
2017-12-31T18:48:48.587Z,7.70
2017-12-31T18:53:53.930Z,7.60
2017-12-31T18:58:59.224Z,7.50
2017-12-31T19:04:07.011Z,7.50
2017-12-31T19:09:18.921Z,7.30
2017-12-31T19:14:25.714Z,7.30
2017-12-31T19:19:32.213Z,7.30
2017-12-31T19:29:49.808Z,7.10
2017-12-31T19:34:57.836Z,7.00
2017-12-31T19:45:12.357Z,6.80
2017-12-31T19:50:19.352Z,6.70
2017-12-31T19:55:29.311Z,6.70
2017-12-31T20:00:36.686Z,6.60
2017-12-31T20:05:48.416Z,6.50
2017-12-31T20:10:53.729Z,6.50
2017-12-31T20:16:02.209Z,6.40
2017-12-31T20:26:21.504Z,6.20
2017-12-31T20:31:27.847Z,6.10
2017-12-31T20:36:30.384Z,6.00
2017-12-31T20:46:28.630Z,5.90
2017-12-31T20:51:31.175Z,5.80
2017-12-31T20:56:33.718Z,5.70
2017-12-31T21:01:40.104Z,5.60
2017-12-31T21:11:57.769Z,5.50
2017-12-31T21:17:05.341Z,5.40
2017-12-31T21:22:14.947Z,5.30
2017-12-31T21:27:23.093Z,5.30
2017-12-31T21:32:28.487Z,5.20
2017-12-31T21:37:39.296Z,5.10
2017-12-31T21:42:48.489Z,5.10
2017-12-31T21:47:56.650Z,5.00
2017-12-31T21:53:04.671Z,4.90
2017-12-31T21:58:11.241Z,4.90
2017-12-31T22:03:21.944Z,4.80
2017-12-31T22:08:41.421Z,4.70
2017-12-31T22:18:59.611Z,4.50
2017-12-31T22:24:06.288Z,4.50
2017-12-31T22:29:14.238Z,4.40
2017-12-31T22:34:25.530Z,4.30
2017-12-31T22:39:36.748Z,4.30
2017-12-31T22:44:41.159Z,4.20
2017-12-31T22:55:02.626Z,4.10
2017-12-31T23:00:10.026Z,4.10
2017-12-31T23:05:15.560Z,4.00
2017-12-31T23:10:21.302Z,4.00
2017-12-31T23:15:30.853Z,4.00
2017-12-31T23:20:40.930Z,3.90
2017-12-31T23:25:50.417Z,3.90
2017-12-31T23:31:00.427Z,3.90
2017-12-31T23:36:02.966Z,3.90
2017-12-31T23:41:05.520Z,3.80
2017-12-31T23:46:20.739Z,3.80
2017-12-31T23:51:24.125Z,3.80
2017-12-31T23:56:32.270Z,3.80
